createdAt,value
2018-03-11T00:00:54.168Z,99.90
2018-03-11T00:06:58.670Z,99.90
2018-03-11T00:13:04.154Z,99.90
2018-03-11T00:19:08.790Z,99.90
2018-03-11T00:25:13.289Z,99.90
2018-03-11T00:31:17.919Z,99.90
2018-03-11T00:37:22.477Z,99.90
2018-03-11T00:43:27.869Z,99.90
2018-03-11T00:49:32.367Z,99.90
2018-03-11T00:55:37.650Z,99.90
2018-03-11T01:01:42.134Z,99.90
2018-03-11T01:07:47.661Z,99.90
2018-03-11T01:13:52.309Z,99.90
2018-03-11T01:19:57.601Z,99.90
2018-03-11T01:26:02.096Z,99.90
2018-03-11T01:32:07.391Z,99.90
2018-03-11T01:38:12.906Z,99.90
2018-03-11T01:44:17.482Z,99.90
2018-03-11T01:50:22.229Z,99.90
2018-03-11T01:56:27.505Z,99.90
2018-03-11T02:02:31.997Z,99.90
2018-03-11T02:08:36.931Z,99.90
2018-03-11T02:14:41.439Z,99.90
2018-03-11T02:20:46.567Z,99.90
2018-03-11T02:26:52.575Z,99.90
2018-03-11T02:32:57.324Z,99.90
2018-03-11T02:39:01.847Z,99.90
2018-03-11T02:45:06.422Z,99.90
2018-03-11T02:51:11.039Z,99.90
2018-03-11T02:57:15.606Z,99.90
2018-03-11T03:03:20.886Z,99.90
2018-03-11T03:09:25.591Z,99.90
2018-03-11T03:15:30.168Z,99.90
2018-03-11T03:21:34.671Z,99.90
2018-03-11T03:27:39.231Z,99.90
2018-03-11T03:33:43.802Z,99.90
2018-03-11T03:39:48.661Z,99.90
2018-03-11T03:45:53.399Z,99.90
2018-03-11T03:51:57.884Z,99.90
2018-03-11T03:58:02.384Z,99.90
2018-03-11T04:04:06.960Z,99.90
2018-03-11T04:10:11.475Z,99.90
2018-03-11T04:16:17.044Z,99.90
2018-03-11T04:22:21.964Z,99.90
2018-03-11T04:28:26.475Z,99.90
2018-03-11T04:34:31.197Z,99.90
2018-03-11T04:40:36.513Z,99.90
2018-03-11T04:46:41.072Z,99.90
2018-03-11T04:52:45.764Z,99.90
2018-03-11T04:58:51.198Z,99.90
2018-03-11T05:04:55.739Z,99.90
2018-03-11T05:11:00.326Z,99.90
2018-03-11T05:17:04.949Z,99.90
2018-03-11T05:23:09.516Z,99.90
2018-03-11T05:29:14.119Z,99.90
2018-03-11T05:35:19.123Z,99.90
2018-03-11T05:41:23.960Z,99.90
2018-03-11T05:47:28.715Z,99.90
2018-03-11T05:53:33.210Z,99.90
2018-03-11T05:59:38.664Z,99.90
2018-03-11T06:05:43.214Z,99.90
2018-03-11T06:11:47.772Z,99.90
2018-03-11T06:17:52.640Z,99.90
2018-03-11T06:23:57.197Z,99.90
2018-03-11T06:30:01.698Z,99.90
2018-03-11T06:36:06.190Z,99.90
2018-03-11T06:42:10.662Z,99.90
2018-03-11T06:48:16.187Z,99.90
2018-03-11T06:54:20.771Z,99.90
2018-03-11T07:00:25.320Z,99.90
2018-03-11T07:06:29.858Z,99.90
2018-03-11T07:12:34.365Z,99.90
2018-03-11T07:18:38.831Z,99.90
2018-03-11T07:24:44.128Z,99.90
2018-03-11T07:30:48.723Z,99.90
2018-03-11T07:36:53.269Z,99.90
2018-03-11T07:42:57.770Z,99.90
2018-03-11T07:49:02.254Z,99.90
2018-03-11T07:55:06.745Z,99.90
2018-03-11T08:01:11.315Z,99.90
2018-03-11T08:07:15.991Z,99.90
2018-03-11T08:13:22.306Z,99.90
2018-03-11T08:19:26.836Z,99.90
2018-03-11T08:25:31.415Z,99.90
2018-03-11T08:31:35.955Z,98.50
2018-03-11T08:37:41.337Z,96.80
2018-03-11T08:43:47.154Z,96.90
2018-03-11T08:49:51.747Z,97.20
2018-03-11T08:55:56.999Z,96.80
2018-03-11T09:02:01.503Z,96.80
2018-03-11T09:08:06.001Z,94.10
2018-03-11T09:14:10.491Z,94.10
2018-03-11T09:20:15.764Z,95.00
2018-03-11T09:26:21.631Z,92.20
2018-03-11T09:32:26.944Z,85.00
2018-03-11T09:38:31.419Z,84.40
2018-03-11T09:44:35.988Z,82.90
2018-03-11T09:50:40.482Z,81.90
2018-03-11T09:56:44.985Z,89.50
2018-03-11T10:02:50.227Z,93.50
2018-03-11T10:08:54.783Z,94.70
2018-03-11T10:15:00.051Z,97.80
2018-03-11T10:21:04.618Z,97.80
2018-03-11T10:27:09.201Z,97.20
2018-03-11T10:39:19.666Z,91.50
2018-03-11T10:45:24.357Z,90.80
2018-03-11T10:51:28.842Z,92.20
2018-03-11T10:57:34.187Z,78.40
2018-03-11T11:03:38.854Z,78.20
2018-03-11T11:09:43.376Z,67.40
2018-03-11T11:15:47.971Z,59.40
2018-03-11T11:21:52.719Z,58.20
2018-03-11T11:27:57.246Z,54.90
2018-03-11T11:34:01.885Z,53.20
2018-03-11T11:40:06.545Z,54.10
2018-03-11T11:46:11.928Z,70.40
2018-03-11T11:52:16.492Z,70.40
2018-03-11T11:58:22.055Z,86.40
2018-03-11T12:04:26.569Z,86.30
2018-03-11T12:10:31.205Z,90.50
2018-03-11T12:16:35.695Z,91.70
2018-03-11T12:22:40.238Z,91.90
2018-03-11T12:28:44.684Z,92.60
2018-03-11T12:34:49.367Z,92.30
2018-03-11T12:40:54.647Z,92.00
2018-03-11T12:46:59.151Z,91.90
2018-03-11T12:53:03.657Z,92.70
2018-03-11T12:59:08.130Z,92.80
2018-03-11T13:05:13.411Z,93.40
2018-03-11T13:11:19.472Z,93.80
2018-03-11T13:17:24.273Z,93.80
2018-03-11T13:23:28.806Z,94.10
2018-03-11T13:29:33.331Z,93.00
2018-03-11T13:35:37.971Z,93.70
2018-03-11T13:41:42.751Z,93.30
2018-03-11T13:47:47.698Z,93.60
2018-03-11T13:53:53.868Z,93.80
2018-03-11T13:59:58.471Z,93.80
2018-03-11T14:06:03.099Z,93.70
2018-03-11T14:12:08.431Z,90.70
2018-03-11T14:18:12.893Z,90.60
2018-03-11T14:24:17.366Z,89.70
2018-03-11T14:30:21.958Z,88.10
2018-03-11T14:36:27.250Z,84.00
2018-03-11T14:42:31.731Z,84.10
2018-03-11T14:48:36.210Z,87.00
2018-03-11T14:54:40.875Z,86.40
2018-03-11T15:00:45.422Z,84.10
2018-03-11T15:06:50.199Z,86.90
2018-03-11T15:12:54.828Z,88.80
2018-03-11T15:18:59.301Z,90.60
2018-03-11T15:25:04.538Z,91.30
2018-03-11T15:31:09.118Z,91.20
2018-03-11T15:37:13.616Z,91.30
2018-03-11T15:43:19.750Z,91.90
2018-03-11T15:49:24.530Z,92.30
2018-03-11T15:55:29.019Z,91.00
2018-03-11T16:01:34.416Z,92.50
2018-03-11T16:07:39.805Z,93.50
2018-03-11T16:13:45.104Z,93.80
2018-03-11T16:19:50.594Z,93.50
2018-03-11T16:25:55.141Z,93.40
2018-03-11T16:31:59.618Z,92.50
2018-03-11T16:38:04.110Z,92.00
2018-03-11T16:44:08.569Z,93.10
2018-03-11T16:50:13.038Z,93.80
2018-03-11T16:56:18.010Z,93.80
2018-03-11T17:02:22.943Z,93.90
2018-03-11T17:08:27.419Z,94.70
2018-03-11T17:14:32.698Z,94.80
2018-03-11T17:20:37.404Z,94.80
2018-03-11T17:26:42.774Z,95.20
2018-03-11T17:32:47.350Z,95.10
2018-03-11T17:38:51.887Z,95.60
2018-03-11T17:44:57.186Z,97.90
2018-03-11T17:51:01.583Z,97.90
2018-03-11T17:57:06.239Z,99.10
2018-03-11T18:03:10.767Z,99.60
2018-03-11T18:09:15.388Z,98.80
2018-03-11T18:15:20.912Z,98.30
2018-03-11T18:21:26.182Z,98.20
2018-03-11T18:27:30.678Z,98.20
2018-03-11T18:33:35.114Z,98.30
2018-03-11T18:39:39.574Z,98.90
2018-03-11T18:45:44.042Z,98.80
2018-03-11T18:51:50.124Z,98.40
2018-03-11T18:57:55.376Z,98.80
2018-03-11T19:03:59.888Z,98.70
2018-03-11T19:10:04.444Z,98.90
2018-03-11T19:16:08.962Z,99.00
2018-03-11T19:22:13.456Z,98.90
2018-03-11T19:28:18.899Z,98.30
2018-03-11T19:34:23.595Z,98.20
2018-03-11T19:40:28.069Z,98.10
2018-03-11T19:46:33.330Z,98.30
2018-03-11T19:52:37.810Z,97.90
2018-03-11T19:58:42.294Z,98.10
2018-03-11T20:04:47.218Z,98.30
2018-03-11T20:10:52.169Z,98.80
2018-03-11T20:16:56.645Z,98.60
2018-03-11T20:23:01.109Z,98.80
2018-03-11T20:29:05.680Z,98.70
2018-03-11T20:35:10.198Z,98.80
2018-03-11T20:41:15.809Z,99.40
2018-03-11T20:47:21.725Z,99.70
2018-03-11T20:53:27.005Z,99.70
2018-03-11T20:59:32.245Z,99.20
2018-03-11T21:05:36.761Z,99.20
2018-03-11T21:11:41.238Z,98.80
2018-03-11T21:17:47.707Z,99.90
2018-03-11T21:23:52.347Z,99.90
2018-03-11T21:29:56.858Z,99.90
2018-03-11T21:36:02.170Z,99.90
2018-03-11T21:42:06.647Z,99.90
2018-03-11T21:48:11.139Z,99.90
2018-03-11T21:54:15.846Z,99.90
2018-03-11T22:00:21.064Z,99.90
2018-03-11T22:06:25.667Z,99.90
2018-03-11T22:12:30.953Z,99.90
2018-03-11T22:18:35.532Z,99.90
2018-03-11T22:24:39.997Z,99.90
2018-03-11T22:30:44.487Z,99.90
2018-03-11T22:36:49.873Z,99.90
2018-03-11T22:42:54.429Z,99.90
2018-03-11T22:48:58.888Z,99.90
2018-03-11T22:55:04.187Z,99.90
2018-03-11T23:01:08.727Z,99.90
2018-03-11T23:07:13.207Z,99.90
2018-03-11T23:13:18.993Z,99.90
2018-03-11T23:19:23.607Z,99.90
2018-03-11T23:25:29.541Z,99.90
2018-03-11T23:31:33.954Z,99.90
2018-03-11T23:37:38.357Z,99.90
2018-03-11T23:43:43.726Z,99.90
2018-03-11T23:49:48.439Z,99.90
2018-03-11T23:55:52.909Z,99.90
